Tropical Cyclones
[Index]
Main Index Home Page Stock Weather Photos Extreme Storms Discussion Storm News and Storm Chasing Reports Tropical Cyclones / Hurricanes / Typhoons Weather Data and Links Wild Fires / Bushfires Weather Observation Techniques Weather Picture Catalogue Tornado Pictures and Reports Stock Video Footage and DVDs for sale
Season 2009-2010 Tropical Cyclone MICK Track Map
Season 2009-2010 Summaries (Operational Data): [AU] [SIO] [SPAC] [SH]
<<- Previous TC | 2009-2010 Season | Next TC ->>

click for intensity scale information  Lat/long Grid: Show Hide

 Date Labels: Show Hide

Operational Tropical Cyclone Data : JTWC Advisories

Name: MICK
Number: 1004

11 Dec 2009 21:00 UTC to 20 Dec 2009 18:00 UTC

    date/time    lat    long     hPa   cat  kts
2009-12-11 21   11.5   171.5    1000         25          
2009-12-12 00   11.5   171.9    1000         30          
2009-12-12 06   12.4   174.6     999         30          
2009-12-12 12   12.4   176.4     999         30          
2009-12-12 18   13.3   175.5     998         30          
2009-12-13 00   13.9   175.4     995    1    35          
2009-12-13 06   14.8   175.8     995    1    35          
2009-12-13 12   15.5   176.1     995    1    35          
2009-12-13 18   16.4   176.5     987    1    45          
2009-12-14 00   17.3   177.3     975    2    60          
2009-12-14 06   18.2   178.1     975    2    60          
2009-12-14 12   18.4   178.4     975    2    60          
2009-12-14 18   19.5   179.6     985    1    45          
2009-12-15 00   19.6   179.8     990    1    40          
2009-12-15 06   20.3   178.9W    999         30          
2009-12-15 12   20.0   177.8W   1000         30          
2009-12-15 18   20.1   176.8W   1004         25          
2009-12-16 00   20.8   175.5W   1006                     
2009-12-16 06   20.9   173.8W   1005                     
2009-12-16 12   22.2   172.7W   1006                     
2009-12-16 18   22.6   172.4W   1007                     
2009-12-17 00   24.7   168.9W   1005                     
2009-12-17 06   25.7   167.2W   1003                     
2009-12-17 12   27.7   165.4W   1001                     
2009-12-17 18   29.9   164.9W    997                     
2009-12-18 00   31.9   165.1W    992                     
2009-12-18 06   32.3   165.0W    981                     
2009-12-18 12   32.2   164.9W    988                     
2009-12-18 18   32.3   164.8W    989                     
2009-12-19 00   32.7   162.8W    989                     
2009-12-19 06   32.7   162.3W    989                     
2009-12-19 12   34.6   161.8W    990                     
2009-12-19 18   35.0   160.9W    991                     
2009-12-20 00   35.3   160.6W    991                     
2009-12-20 06   35.9   160.6W    993                     
2009-12-20 12   37.2   159.8W    995                     
2009-12-20 18   37.6   159.7W    996                     
Winds are 10-min average.

Tropical cyclone tracks developed by Michael Bath using operational warnings and advisories and Google Maps.


[Australian Severe Weather index] [Copyright Notice] [Email Contacts] [Search This Site] [Privacy Policy]
Document: tropical_cyclone_mick.htm Updated: 28 May 2013